Time;durP1;ratioP1;P1;durP2;ratioP2;P2;SDS_P1;SDS_P2;PMS_P1;PMS_P2;Temp;Humidity;BMP_temperature;BMP_pressure;BME280_temperature;BME280_humidity;BME280_pressure;Samples;Min_cycle;Max_cycle;Signal;HPM_P1;HPM_P2
2024/04/12 00:01:15;;;;;;;0.90;0.90;;;16.00;50.30;16.50;99351.00;;;;5489323;26;20768;-58
2024/04/12 00:03:47;;;;;;;0.90;0.90;;;16.00;50.30;16.50;99341.00;;;;5488109;26;20237;-58
2024/04/12 00:06:15;;;;;;;0.80;0.80;;;16.00;50.30;16.50;99351.00;;;;5489123;26;20221;-58
2024/04/12 00:08:46;;;;;;;0.90;0.90;;;16.00;50.30;16.50;99348.00;;;;5488254;26;20233;-58
2024/04/12 00:11:13;;;;;;;0.70;0.70;;;16.00;50.30;16.50;99340.00;;;;5487355;26;20237;-58
2024/04/12 00:13:43;;;;;;;0.90;0.90;;;16.00;50.40;16.50;99337.00;;;;5489124;26;20710;-58
2024/04/12 00:16:09;;;;;;;0.97;0.97;;;16.00;50.30;16.50;99336.00;;;;5489094;26;20318;-58
2024/04/12 00:18:45;;;;;;;1.00;1.00;;;15.90;50.30;16.50;99338.00;;;;5486478;26;20796;-59
2024/04/12 00:21:12;;;;;;;0.83;0.83;;;16.00;50.30;16.50;99339.00;;;;5488880;26;20256;-59
2024/04/12 00:23:41;;;;;;;1.00;1.00;;;16.00;50.30;16.50;99333.00;;;;5489028;26;20761;-58
2024/04/12 00:26:07;;;;;;;0.90;0.90;;;15.90;50.40;16.40;99330.00;;;;5486793;26;20237;-58
2024/04/12 00:28:37;;;;;;;1.33;1.30;;;16.00;50.40;16.40;99333.00;;;;5488011;26;20224;-59
2024/04/12 00:31:06;;;;;;;0.80;0.80;;;16.00;51.00;16.40;99330.00;;;;5488881;26;20354;-58
2024/04/12 00:33:36;;;;;;;0.87;0.87;;;16.00;50.40;16.40;99330.00;;;;5475235;26;20238;-59
2024/04/12 00:36:07;;;;;;;0.97;0.97;;;15.90;50.40;16.40;99326.00;;;;5452468;26;20226;-58
2024/04/12 00:38:38;;;;;;;0.80;0.80;;;16.00;50.40;16.40;99325.00;;;;5451673;26;20603;-58
2024/04/12 00:41:11;;;;;;;0.93;0.93;;;15.90;50.40;16.40;99326.00;;;;5469563;26;20288;-58
2024/04/12 00:43:45;;;;;;;0.80;0.80;;;15.90;50.40;16.40;99326.00;;;;5488823;26;20292;-58
2024/04/12 00:46:18;;;;;;;0.90;0.90;;;15.90;50.40;16.40;99324.00;;;;5488749;26;20225;-58
2024/04/12 00:48:51;;;;;;;0.90;0.90;;;15.90;50.40;16.40;99326.00;;;;5485994;26;20280;-58
2024/04/12 00:51:27;;;;;;;1.00;1.00;;;15.90;50.40;16.40;99325.00;;;;5488603;26;20353;-58
2024/04/12 00:53:58;;;;;;;0.77;0.77;;;15.90;50.40;16.40;99323.00;;;;5488859;26;20331;-58
2024/04/12 00:56:28;;;;;;;0.90;0.90;;;15.90;50.40;16.40;99323.00;;;;5487018;26;20240;-58
2024/04/12 00:58:59;;;;;;;0.90;0.90;;;15.90;50.40;16.40;99326.00;;;;5487716;26;20225;-58
2024/04/12 01:01:26;;;;;;;0.90;0.90;;;15.90;50.40;16.40;99323.00;;;;5488544;26;20347;-58
2024/04/12 01:03:56;;;;;;;0.80;0.80;;;15.90;50.40;16.40;99329.00;;;;5487317;26;20240;-58
2024/04/12 01:06:29;;;;;;;1.00;1.00;;;15.90;50.40;16.40;99325.00;;;;5488313;26;20294;-59
2024/04/12 01:09:10;;;;;;;1.00;0.93;;;15.90;50.40;16.40;99326.00;;;;5487861;26;20332;-58
2024/04/12 01:11:38;;;;;;;0.80;0.80;;;15.90;50.50;16.40;99329.00;;;;5486884;26;20301;-58
2024/04/12 01:14:08;;;;;;;0.80;0.80;;;15.90;50.50;16.40;99330.00;;;;5488523;26;20233;-58
2024/04/12 01:16:35;;;;;;;0.90;0.90;;;15.80;50.40;16.30;99322.00;;;;5488729;26;20293;-58
2024/04/12 01:19:04;;;;;;;0.90;0.90;;;15.90;50.50;16.30;99330.00;;;;5486537;26;20233;-58
2024/04/12 01:21:32;;;;;;;1.17;0.97;;;15.80;50.40;16.30;99334.00;;;;5488489;26;20604;-58
2024/04/12 01:24:06;;;;;;;0.70;0.70;;;15.80;50.40;16.30;99334.00;;;;5488524;26;20248;-58
2024/04/12 01:26:34;;;;;;;0.77;0.77;;;15.80;50.40;16.30;99345.00;;;;5487002;26;20237;-58
2024/04/12 01:29:03;;;;;;;0.80;0.80;;;15.80;50.40;16.30;99342.00;;;;5487550;26;20299;-58
2024/04/12 01:31:29;;;;;;;0.80;0.80;;;15.80;50.40;16.30;99344.00;;;;5488484;26;20374;-58
2024/04/12 01:34:00;;;;;;;0.87;0.87;;;15.80;50.40;16.30;99345.00;;;;5488471;26;20244;-58
2024/04/12 01:36:27;;;;;;;1.00;1.00;;;15.80;50.40;16.30;99346.00;;;;5487049;26;20275;-58
2024/04/12 01:38:57;;;;;;;0.90;0.90;;;15.80;50.50;16.30;99345.00;;;;5487415;26;20233;-58
2024/04/12 01:41:24;;;;;;;1.00;0.90;;;15.80;50.40;16.30;99353.00;;;;5486513;26;20242;-58
2024/04/12 01:44:01;;;;;;;1.13;1.03;;;15.80;50.40;16.30;99350.00;;;;5488273;26;20811;-58
2024/04/12 01:46:27;;;;;;;0.90;0.90;;;15.80;50.50;16.30;99357.00;;;;5488312;26;20326;-59
2024/04/12 01:48:57;;;;;;;0.90;0.90;;;15.80;50.50;16.30;99356.00;;;;5485778;26;20237;-58
2024/04/12 01:51:25;;;;;;;0.97;0.97;;;15.80;50.50;16.30;99353.00;;;;5488134;26;20250;-58
2024/04/12 01:53:55;;;;;;;0.70;0.70;;;15.80;50.50;16.30;99354.00;;;;5488090;26;20592;-58
2024/04/12 01:56:22;;;;;;;0.80;0.80;;;15.80;50.50;16.30;99346.00;;;;5486168;26;20284;-58
2024/04/12 01:58:56;;;;;;;1.20;1.10;;;15.80;50.50;16.30;99349.00;;;;5486915;26;20221;-58
2024/04/12 02:01:26;;;;;;;0.80;0.80;;;15.80;50.50;16.30;99336.00;;;;5487872;26;20241;-58
2024/04/12 02:03:56;;;;;;;0.90;0.90;;;15.80;50.50;16.20;99343.00;;;;5486541;26;20245;-58
2024/04/12 02:06:23;;;;;;;1.10;1.00;;;15.80;50.50;16.30;99346.00;;;;5487624;26;20225;-58
2024/04/12 02:08:52;;;;;;;0.80;0.80;;;15.80;50.50;16.20;99345.00;;;;5486447;26;20308;-58
2024/04/12 02:11:23;;;;;;;0.90;0.90;;;15.80;50.50;16.20;99350.00;;;;5485133;26;20245;-58
2024/04/12 02:13:57;;;;;;;0.90;0.90;;;15.80;50.50;16.20;99346.00;;;;5487410;26;20224;-58
2024/04/12 02:16:23;;;;;;;0.90;0.90;;;15.80;50.50;16.20;99346.00;;;;5486442;26;20271;-59
2024/04/12 02:18:52;;;;;;;1.00;1.00;;;15.70;50.50;16.20;99340.00;;;;5486337;26;20285;-58
2024/04/12 02:21:19;;;;;;;1.90;1.03;;;15.70;50.50;16.20;99343.00;;;;5486283;26;20241;-58
2024/04/12 02:23:48;;;;;;;0.80;0.80;;;15.70;50.50;16.20;99348.00;;;;5487385;26;20811;-58
2024/04/12 02:26:15;;;;;;;0.80;0.80;;;15.70;50.50;16.20;99346.00;;;;5486039;26;20752;-58
2024/04/12 02:28:47;;;;;;;0.90;0.90;;;15.70;50.50;16.20;99341.00;;;;5486487;26;20396;-58
2024/04/12 02:31:15;;;;;;;0.80;0.80;;;15.70;50.50;16.20;99341.00;;;;5487275;26;20237;-58
2024/04/12 02:33:44;;;;;;;0.70;0.70;;;15.70;50.50;16.20;99339.00;;;;5486116;26;20583;-58
2024/04/12 02:36:16;;;;;;;0.87;0.87;;;15.70;50.50;16.20;99338.00;;;;5487250;26;20233;-58
2024/04/12 02:38:49;;;;;;;0.90;0.90;;;15.70;50.50;16.20;99336.00;;;;5486520;26;20229;-58
2024/04/12 02:41:17;;;;;;;0.97;0.97;;;15.70;50.50;16.20;99335.00;;;;5485436;26;20248;-58
2024/04/12 02:43:51;;;;;;;1.00;1.00;;;15.70;50.60;16.20;99341.00;;;;5487237;26;20322;-58
2024/04/12 02:46:23;;;;;;;0.70;0.70;;;15.70;50.60;16.20;99345.00;;;;5487077;26;20346;-58
2024/04/12 02:48:52;;;;;;;0.80;0.80;;;15.70;50.60;16.20;99335.00;;;;5485947;26;20293;-58
2024/04/12 02:51:20;;;;;;;0.90;0.90;;;15.70;50.60;16.20;99333.00;;;;5485844;26;20301;-58
2024/04/12 02:53:50;;;;;;;0.80;0.80;;;15.70;50.60;16.20;99332.00;;;;5486966;26;20286;-58
2024/04/12 02:56:18;;;;;;;0.70;0.70;;;15.70;50.60;16.10;99334.00;;;;5485113;26;20291;-58
2024/04/12 02:58:51;;;;;;;0.73;0.73;;;15.60;50.40;16.20;99332.00;;;;5485881;26;20756;-58
2024/04/12 03:01:23;;;;;;;1.47;0.90;;;15.60;50.50;16.20;99340.00;;;;5486712;26;20299;-58
2024/04/12 03:03:55;;;;;;;0.90;0.90;;;15.70;50.60;16.10;99335.00;;;;5485959;26;20234;-58
2024/04/12 03:06:24;;;;;;;0.80;0.80;;;15.70;50.60;16.10;99335.00;;;;5486691;26;20691;-58
2024/04/12 03:08:54;;;;;;;0.93;0.93;;;15.70;50.60;16.10;99328.00;;;;5485481;26;20221;-58
2024/04/12 03:11:22;;;;;;;1.00;1.00;;;15.60;50.50;16.10;99333.00;;;;5485025;26;20381;-58
2024/04/12 03:13:53;;;;;;;0.90;0.90;;;15.70;50.60;16.10;99332.00;;;;5486366;26;20244;-58
2024/04/12 03:16:22;;;;;;;1.20;1.03;;;15.60;50.50;16.10;99333.00;;;;5486364;26;20267;-58
2024/04/12 03:18:54;;;;;;;0.90;0.90;;;15.60;50.50;16.10;99333.00;;;;5485380;26;20244;-58
2024/04/12 03:21:22;;;;;;;1.00;1.00;;;15.60;50.50;16.10;99336.00;;;;5484962;26;20256;-58
2024/04/12 03:23:52;;;;;;;0.90;0.90;;;15.60;50.50;16.10;99329.00;;;;5486199;26;20288;-58
2024/04/12 03:26:21;;;;;;;0.80;0.80;;;15.60;50.50;16.10;99330.00;;;;5484635;26;20357;-58
2024/04/12 03:28:54;;;;;;;0.90;0.90;;;15.60;50.50;16.10;99332.00;;;;5486682;26;20225;-58
2024/04/12 03:31:26;;;;;;;0.80;0.80;;;15.60;50.50;16.10;99333.00;;;;5489730;26;20236;-58
2024/04/12 03:33:54;;;;;;;0.90;0.90;;;15.60;50.50;16.10;99338.00;;;;5489714;26;20368;-58
2024/04/12 03:36:53;;;;;;;0.77;0.77;;;15.60;50.50;16.10;99331.00;;;;5489103;26;20853;-58
2024/04/12 03:39:28;;;;;;;0.80;0.80;;;15.60;50.50;16.10;99330.00;;;;5488572;26;20363;-58
2024/04/12 03:42:03;;;;;;;0.97;0.97;;;15.60;50.50;16.10;99331.00;;;;5488432;26;20736;-58
2024/04/12 03:44:30;;;;;;;0.90;0.90;;;15.60;50.50;16.10;99325.00;;;;5490165;26;20229;-58
2024/04/12 03:47:07;;;;;;;0.80;0.80;;;15.60;50.50;16.10;99332.00;;;;5489652;26;20806;-58
2024/04/12 03:49:36;;;;;;;0.90;0.90;;;15.60;50.50;16.10;99333.00;;;;5487779;26;20236;-58
2024/04/12 03:52:05;;;;;;;0.80;0.80;;;15.60;50.50;16.00;99331.00;;;;5489765;26;20241;-58
2024/04/12 03:54:31;;;;;;;0.83;0.83;;;15.60;50.80;16.00;99331.00;;;;5489983;26;20354;-58
2024/04/12 03:57:06;;;;;;;0.90;0.90;;;15.60;50.50;16.00;99331.00;;;;5488186;26;20292;-58
2024/04/12 03:59:34;;;;;;;1.00;1.00;;;15.60;50.60;16.00;99341.00;;;;5488957;26;20224;-58
2024/04/12 04:02:09;;;;;;;1.00;1.00;;;15.60;50.60;16.00;99336.00;;;;5489600;26;20291;-58
2024/04/12 04:04:44;;;;;;;0.93;0.93;;;15.60;50.50;16.00;99337.00;;;;5487789;26;20364;-58
2024/04/12 04:07:14;;;;;;;0.90;0.90;;;15.60;50.60;16.00;99338.00;;;;5489725;26;20353;-58
2024/04/12 04:09:42;;;;;;;0.90;0.90;;;15.60;50.60;16.00;99342.00;;;;5488354;26;20616;-58
2024/04/12 04:12:14;;;;;;;0.83;0.83;;;15.50;50.60;16.00;99352.00;;;;5487623;26;20839;-58
2024/04/12 04:14:47;;;;;;;0.93;0.87;;;15.50;50.60;16.00;99353.00;;;;5489282;26;20232;-58
2024/04/12 04:17:29;;;;;;;1.00;1.00;;;15.50;50.60;16.00;99353.00;;;;5489038;26;20225;-58
2024/04/12 04:19:55;;;;;;;1.00;1.00;;;15.50;50.60;16.00;99347.00;;;;5487758;26;20268;-58
2024/04/12 04:22:39;;;;;;;0.97;0.97;;;15.50;50.60;16.00;99344.00;;;;5489081;26;20224;-58
2024/04/12 04:25:07;;;;;;;1.07;0.97;;;15.50;50.60;16.00;99349.00;;;;5487580;26;20271;-58
2024/04/12 04:27:37;;;;;;;0.90;0.90;;;15.50;50.60;16.00;99351.00;;;;5488660;26;20237;-58
2024/04/12 04:30:05;;;;;;;0.80;0.80;;;15.50;50.60;16.00;99357.00;;;;5488268;26;20236;-58
2024/04/12 04:32:36;;;;;;;0.90;0.90;;;15.50;50.60;16.00;99362.00;;;;5489053;26;20321;-58
2024/04/12 04:35:08;;;;;;;0.90;0.90;;;15.50;50.60;16.00;99363.00;;;;5488048;26;20982;-58
2024/04/12 04:37:39;;;;;;;1.10;1.00;;;15.50;50.60;16.00;99360.00;;;;5488430;26;20774;-58
2024/04/12 04:40:11;;;;;;;1.00;1.00;;;15.50;50.60;16.00;99364.00;;;;5486655;26;20722;-58
2024/04/12 04:42:43;;;;;;;1.00;1.00;;;15.50;50.60;16.00;99364.00;;;;5488804;26;20235;-58
2024/04/12 04:45:10;;;;;;;0.90;0.90;;;15.50;50.60;16.00;99368.00;;;;5488513;26;20222;-58
2024/04/12 04:47:41;;;;;;;0.93;0.83;;;15.50;50.60;16.00;99366.00;;;;5488099;26;20233;-58
2024/04/12 04:50:08;;;;;;;1.10;1.00;;;15.50;50.60;16.00;99361.00;;;;5487164;26;20252;-58
2024/04/12 04:52:40;;;;;;;0.90;0.90;;;15.50;50.60;16.00;99363.00;;;;5488561;26;20583;-58
2024/04/12 04:55:07;;;;;;;0.77;0.77;;;15.50;50.60;16.00;99362.00;;;;5487226;26;20766;-58
2024/04/12 04:57:43;;;;;;;1.00;1.00;;;15.50;50.60;16.00;99363.00;;;;5488005;26;20271;-58
2024/04/12 05:00:18;;;;;;;1.27;1.17;;;15.50;50.60;16.00;99364.00;;;;5488056;26;20272;-58
2024/04/12 05:02:50;;;;;;;1.00;1.00;;;15.50;50.60;16.00;99366.00;;;;5488586;26;20271;-58
2024/04/12 05:05:22;;;;;;;1.33;1.27;;;15.50;50.60;16.00;99366.00;;;;5487858;26;20291;-58
2024/04/12 05:07:55;;;;;;;0.87;0.87;;;15.50;50.60;16.00;99370.00;;;;5488005;26;20232;-58
2024/04/12 05:10:21;;;;;;;0.90;0.90;;;15.50;50.60;15.90;99373.00;;;;5486881;26;20284;-58
2024/04/12 05:12:50;;;;;;;1.10;1.10;;;15.50;50.60;15.90;99378.00;;;;5488789;26;20231;-58
2024/04/12 05:18:18;;;;;;;1.33;1.23;;;15.50;50.60;16.00;99384.00;;;;5487278;26;20259;-58
2024/04/12 05:20:47;;;;;;;1.10;1.10;;;15.50;50.60;16.00;99382.00;;;;5487722;26;20800;-58
2024/04/12 05:23:19;;;;;;;1.00;1.00;;;15.50;50.60;16.00;99387.00;;;;5488768;26;20270;-58
2024/04/12 05:25:46;;;;;;;1.23;1.13;;;15.50;50.60;16.00;99385.00;;;;5487089;26;20297;-58
2024/04/12 05:28:15;;;;;;;1.60;1.40;;;15.50;50.60;16.00;99384.00;;;;5487556;26;20345;-58
2024/04/12 05:30:42;;;;;;;1.17;1.07;;;15.50;50.50;16.00;99391.00;;;;5488251;26;20300;-58
2024/04/12 05:33:16;;;;;;;1.20;1.10;;;15.50;50.60;16.00;99389.00;;;;5487217;26;20267;-58
2024/04/12 05:35:46;;;;;;;1.33;1.23;;;15.50;50.50;16.00;99389.00;;;;5488455;26;20284;-58
2024/04/12 05:38:20;;;;;;;1.30;1.20;;;15.50;50.50;16.00;99389.00;;;;5487298;26;20756;-59
2024/04/12 05:40:52;;;;;;;1.30;1.20;;;15.50;50.50;16.00;99393.00;;;;5486630;26;20376;-58
2024/04/12 05:43:21;;;;;;;1.23;1.17;;;15.60;50.40;16.00;99379.00;;;;5488260;26;20798;-58
2024/04/12 05:45:49;;;;;;;1.40;1.30;;;15.60;50.40;16.00;99383.00;;;;5488067;26;20271;-58
2024/04/12 05:48:21;;;;;;;1.40;1.30;;;15.60;50.40;16.00;99383.00;;;;5487340;26;20229;-58
2024/04/12 05:50:55;;;;;;;1.37;1.27;;;15.60;50.40;16.10;99394.00;;;;5485465;26;20291;-58
2024/04/12 05:53:23;;;;;;;1.40;1.30;;;15.60;51.00;16.10;99388.00;;;;5488169;26;20224;-58
2024/04/12 05:56:20;;;;;;;1.53;1.10;;;15.60;50.30;16.10;99385.00;;;;5486628;26;20579;-58
2024/04/12 05:58:40;;;;;;;1.57;1.27;;;15.60;50.20;16.10;99387.00;;;;5486764;26;20217;-58
2024/04/12 06:01:10;;;;;;;1.20;1.10;;;15.70;50.30;16.10;99384.00;;;;5488035;26;20336;-58
2024/04/12 06:03:42;;;;;;;1.20;1.10;;;15.70;50.20;16.10;99389.00;;;;5487808;26;21041;-58
2024/04/12 06:06:15;;;;;;;1.40;1.30;;;15.70;50.20;16.10;99394.00;;;;5486768;26;20613;-58
2024/04/12 06:08:41;;;;;;;1.30;1.20;;;15.70;50.20;16.10;99394.00;;;;5486614;26;20232;-59
2024/04/12 06:11:10;;;;;;;1.30;1.20;;;15.70;50.10;16.20;99391.00;;;;5485521;26;20240;-58
2024/04/12 06:13:38;;;;;;;1.30;1.20;;;15.70;50.10;16.20;99395.00;;;;5487331;26;20366;-58
2024/04/12 06:16:07;;;;;;;1.40;1.30;;;15.70;50.00;16.20;99399.00;;;;5487460;26;20754;-58
2024/04/12 06:18:33;;;;;;;1.50;1.40;;;15.80;49.90;16.20;99403.00;;;;5485226;26;20339;-58
2024/04/12 06:21:04;;;;;;;1.67;1.43;;;15.80;49.80;16.20;99404.00;;;;5487093;26;20243;-58
2024/04/12 06:23:37;;;;;;;1.40;1.30;;;15.80;49.70;16.20;99397.00;;;;5487401;26;20224;-58
2024/04/12 06:26:06;;;;;;;1.33;1.23;;;15.80;49.60;16.20;99404.00;;;;5485658;26;20729;-59
2024/04/12 06:28:32;;;;;;;1.40;1.20;;;15.80;49.50;16.30;99398.00;;;;5486474;26;20292;-58
2024/04/12 06:31:01;;;;;;;1.57;1.30;;;15.80;50.20;16.30;99403.00;;;;5487159;26;20244;-58
2024/04/12 06:33:28;;;;;;;1.57;1.47;;;15.90;49.50;16.30;99391.00;;;;5486024;26;20265;-59
2024/04/12 06:36:04;;;;;;;1.30;1.20;;;15.90;49.50;16.30;99398.00;;;;5487113;26;20771;-58
2024/04/12 06:38:34;;;;;;;1.40;1.30;;;15.90;49.40;16.30;99398.00;;;;5486407;26;20710;-58
2024/04/12 06:41:04;;;;;;;1.50;1.40;;;15.90;49.40;16.40;99389.00;;;;5485624;26;20776;-58
2024/04/12 06:43:33;;;;;;;1.40;1.30;;;15.90;49.40;16.40;99392.00;;;;5486964;26;20682;-58
2024/04/12 06:46:07;;;;;;;1.50;1.40;;;16.00;49.30;16.40;99390.00;;;;5487120;26;20333;-58
2024/04/12 06:48:34;;;;;;;1.60;1.50;;;16.00;49.20;16.40;99393.00;;;;5485033;26;20232;-58
2024/04/12 06:51:05;;;;;;;1.60;1.50;;;16.00;49.20;16.50;99393.00;;;;5486856;26;20241;-58
2024/04/12 06:53:33;;;;;;;1.37;1.27;;;16.10;49.20;16.50;99400.00;;;;5486980;26;20232;-59
2024/04/12 06:56:06;;;;;;;1.50;1.40;;;16.10;49.20;16.50;99404.00;;;;5485585;26;20241;-58
2024/04/12 06:58:32;;;;;;;1.40;1.30;;;16.10;49.10;16.50;99404.00;;;;5485918;26;20268;-58
2024/04/12 07:01:05;;;;;;;1.33;1.23;;;16.20;49.00;16.50;99404.00;;;;5486825;26;20314;-59
2024/04/12 07:03:34;;;;;;;1.50;1.40;;;16.20;49.00;16.60;99406.00;;;;5489424;26;20342;-58
2024/04/12 07:06:03;;;;;;;1.63;1.20;;;16.30;49.00;16.60;99405.00;;;;5489514;26;20237;-58
2024/04/12 07:08:29;;;;;;;1.40;1.30;;;16.20;48.90;16.60;99412.00;;;;5489593;26;20221;-59
2024/04/12 07:11:06;;;;;;;1.43;1.33;;;16.30;48.90;16.60;99407.00;;;;5488624;26;20708;-58
2024/04/12 07:13:35;;;;;;;1.23;1.13;;;16.30;48.80;16.60;99406.00;;;;5490462;26;20369;-59
2024/04/12 07:16:01;;;;;;;1.33;1.23;;;16.30;48.80;16.70;99404.00;;;;5490524;26;20284;-58
2024/04/12 07:18:31;;;;;;;1.50;1.40;;;16.30;48.70;16.70;99403.00;;;;5488386;26;20230;-58
2024/04/12 07:21:14;;;;;;;1.10;1.10;;;16.30;48.70;16.70;99405.00;;;;5490183;26;20237;-59
2024/04/12 07:23:46;;;;;;;1.50;1.40;;;16.40;48.60;16.70;99411.00;;;;5490084;26;20710;-59
2024/04/12 07:26:24;;;;;;;1.40;1.30;;;16.40;48.50;16.70;99400.00;;;;5488579;26;20300;-59
2024/04/12 07:28:59;;;;;;;1.40;1.30;;;16.40;48.50;16.80;99400.00;;;;5489286;26;20225;-58
2024/04/12 07:31:26;;;;;;;1.70;1.60;;;16.50;48.50;16.80;99395.00;;;;5489870;26;20267;-58
2024/04/12 07:33:59;;;;;;;1.23;1.20;;;16.50;48.40;16.80;99398.00;;;;5488972;26;20814;-58
2024/04/12 07:36:30;;;;;;;1.30;1.20;;;16.50;48.30;16.90;99402.00;;;;5453798;26;20226;-58
2024/04/12 07:39:01;;;;;;;1.50;1.40;;;16.50;48.20;16.90;99401.00;;;;5452811;26;20277;-58
2024/04/12 07:41:33;;;;;;;1.40;1.30;;;16.50;48.20;16.90;99400.00;;;;5475500;26;20634;-59
2024/04/12 07:44:04;;;;;;;1.50;1.40;;;16.50;48.10;16.90;99400.00;;;;5490000;26;20888;-58
2024/04/12 07:46:33;;;;;;;1.30;1.20;;;16.60;48.10;16.90;99407.00;;;;5489972;26;20225;-58
2024/04/12 07:49:02;;;;;;;1.10;1.10;;;16.60;48.00;17.00;99406.00;;;;5488104;26;20795;-58
2024/04/12 07:51:31;;;;;;;1.70;1.60;;;16.70;48.00;17.00;99400.00;;;;5489822;26;20380;-58
2024/04/12 07:54:03;;;;;;;1.50;1.40;;;16.70;48.00;17.00;99400.00;;;;5489877;26;20229;-59
2024/04/12 07:56:37;;;;;;;1.20;1.20;;;16.70;47.90;17.00;99400.00;;;;5487588;26;20282;-59
2024/04/12 07:59:13;;;;;;;1.30;1.20;;;16.70;47.90;17.00;99399.00;;;;5488953;26;20225;-59
2024/04/12 08:01:40;;;;;;;1.33;1.23;;;16.70;47.80;17.10;99401.00;;;;5489688;26;20345;-58
2024/04/12 08:04:15;;;;;;;1.40;1.30;;;16.80;47.80;17.10;99400.00;;;;5488227;26;20581;-58
2024/04/12 08:06:55;;;;;;;1.10;1.10;;;16.80;47.70;17.10;99392.00;;;;5489692;26;20713;-58
2024/04/12 08:09:34;;;;;;;1.40;1.30;;;16.80;47.70;17.10;99391.00;;;;5488810;26;20255;-59
2024/04/12 08:12:13;;;;;;;1.17;1.07;;;16.80;47.60;17.10;99394.00;;;;5487571;26;20241;-59
2024/04/12 08:14:51;;;;;;;1.07;1.00;;;16.80;47.60;17.10;99394.00;;;;5488823;26;20289;-59
2024/04/12 08:17:23;;;;;;;1.43;1.33;;;16.80;47.50;17.10;99389.00;;;;5489605;26;20221;-59
2024/04/12 08:19:55;;;;;;;1.27;1.17;;;16.80;47.50;17.10;99390.00;;;;5487731;26;20241;-58
2024/04/12 08:22:21;;;;;;;1.30;1.20;;;16.90;47.60;17.20;99388.00;;;;5489626;26;20333;-59
2024/04/12 08:24:52;;;;;;;1.30;1.20;;;16.90;47.60;17.20;99383.00;;;;5489277;26;20228;-58
2024/04/12 08:27:24;;;;;;;1.00;1.00;;;16.90;47.50;17.20;99378.00;;;;5488774;26;20225;-58
2024/04/12 08:29:53;;;;;;;1.40;1.30;;;16.90;47.50;17.20;99374.00;;;;5488450;26;20595;-59
2024/04/12 08:32:27;;;;;;;1.20;1.10;;;16.90;47.50;17.20;99374.00;;;;5489049;26;20852;-59
2024/04/12 08:34:58;;;;;;;1.30;1.20;;;16.90;47.50;17.20;99364.00;;;;5488508;26;20240;-59
2024/04/12 08:37:30;;;;;;;1.07;1.07;;;16.90;47.50;17.20;99361.00;;;;5489137;26;20710;-59
2024/04/12 08:40:08;;;;;;;0.90;0.90;;;16.90;47.50;17.20;99357.00;;;;5486573;26;20718;-59
2024/04/12 08:42:38;;;;;;;1.30;1.20;;;16.90;47.50;17.20;99348.00;;;;5452646;26;20690;-59
2024/04/12 08:45:17;;;;;;;1.37;1.27;;;16.90;47.50;17.20;99345.00;;;;5452749;26;20789;-58
2024/04/12 08:47:51;;;;;;;1.13;1.10;;;16.90;47.50;17.20;99345.00;;;;5452194;26;20334;-58
2024/04/12 08:50:23;;;;;;;1.40;1.30;;;16.90;47.60;17.20;99343.00;;;;5489040;26;20242;-59
2024/04/12 08:52:52;;;;;;;1.03;1.00;;;16.90;47.50;17.30;99349.00;;;;5489019;26;20226;-59
2024/04/12 08:55:24;;;;;;;0.90;0.90;;;16.90;47.50;17.30;99346.00;;;;5487017;26;20271;-59
2024/04/12 08:57:57;;;;;;;1.47;1.37;;;16.90;47.50;17.30;99342.00;;;;5488363;26;20297;-58
2024/04/12 09:00:28;;;;;;;1.50;1.40;;;17.00;47.50;17.30;99336.00;;;;5488806;26;20628;-58
2024/04/12 09:02:59;;;;;;;1.13;1.10;;;16.90;47.50;17.30;99335.00;;;;5487735;26;20237;-59
2024/04/12 09:05:28;;;;;;;1.07;1.07;;;16.90;47.50;17.30;99338.00;;;;5452468;26;20619;-59
2024/04/12 09:07:58;;;;;;;1.30;1.20;;;17.00;47.50;17.30;99326.00;;;;5451256;26;20282;-59
2024/04/12 09:10:27;;;;;;;1.13;1.10;;;17.00;47.60;17.30;99333.00;;;;5459169;26;20253;-59
2024/04/12 09:13:00;;;;;;;1.60;1.50;;;17.00;48.20;17.30;99339.00;;;;5488617;26;20227;-59
2024/04/12 09:15:32;;;;;;;1.27;1.20;;;16.90;47.60;17.30;99334.00;;;;5488714;26;20236;-59
2024/04/12 09:18:00;;;;;;;1.20;1.10;;;17.00;47.60;17.30;99335.00;;;;5487733;26;20367;-59
2024/04/12 09:20:35;;;;;;;1.20;1.10;;;17.00;47.60;17.30;99334.00;;;;5487564;26;20297;-59
2024/04/12 09:23:13;;;;;;;1.00;1.00;;;17.00;47.70;17.30;99331.00;;;;5488450;26;20224;-59
2024/04/12 09:25:54;;;;;;;1.63;1.50;;;17.00;47.60;17.30;99336.00;;;;5485139;26;20740;-59
2024/04/12 09:28:26;;;;;;;1.17;1.10;;;16.90;47.70;17.30;99327.00;;;;5487571;26;20254;-59
2024/04/12 09:33:50;;;;;;;1.30;1.20;;;16.90;47.70;17.30;99337.00;;;;5491367;26;20348;-59
2024/04/12 09:36:38;;;;;;;1.10;1.00;;;17.00;47.70;17.30;99332.00;;;;5451909;26;20230;-59
2024/04/12 09:39:13;;;;;;;1.10;1.10;;;16.90;47.80;17.30;99335.00;;;;5450934;26;20273;-59
2024/04/12 09:41:53;;;;;;;1.03;0.93;;;17.00;47.70;17.30;99332.00;;;;5477592;26;20300;-59
2024/04/12 09:44:27;;;;;;;1.23;1.20;;;17.00;47.80;17.30;99330.00;;;;5488344;26;20268;-59
2024/04/12 10:37:47;;;;;;;1.33;1.30;;;16.90;48.10;17.30;99310.00;;;;5490946;26;20328;-59
2024/04/12 10:40:16;;;;;;;1.07;1.07;;;16.90;48.10;17.30;99299.00;;;;5489242;26;20356;-58
2024/04/12 10:42:46;;;;;;;1.07;1.00;;;16.90;48.20;17.30;99300.00;;;;5490992;26;20225;-58
2024/04/12 10:45:15;;;;;;;1.17;1.13;;;16.90;48.20;17.30;99295.00;;;;5490810;26;20578;-67
2024/04/12 10:47:44;;;;;;;1.37;1.27;;;17.00;48.10;17.30;99289.00;;;;5488291;26;20338;-68
2024/04/12 10:55:34;;;;;;;1.13;1.10;;;16.90;48.20;17.30;99278.00;;;;5911130;21;20654;-58
2024/04/12 10:58:01;;;;;;;1.00;1.00;;;16.90;48.30;17.30;99277.00;;;;5381550;26;20228;-58
2024/04/12 11:00:30;;;;;;;1.13;1.03;;;16.90;48.20;17.30;99269.00;;;;5382686;26;20295;-58
2024/04/12 11:02:59;;;;;;;1.00;1.00;;;16.90;48.30;17.30;99261.00;;;;5381366;26;20299;-58
2024/04/12 11:05:38;;;;;;;1.20;1.10;;;17.00;48.20;17.30;99263.00;;;;5347551;26;20233;-58
2024/04/12 11:08:06;;;;;;;1.60;1.30;;;17.00;48.20;17.30;99259.00;;;;5346860;26;20229;-58
2024/04/12 11:10:54;;;;;;;0.90;0.90;;;17.00;48.20;17.30;99251.00;;;;5356105;26;20244;-58
2024/04/12 11:13:29;;;;;;;1.10;1.10;;;17.00;48.20;17.40;99256.00;;;;5382555;26;20282;-58
2024/04/12 11:32:42;;;;;;;1.20;1.10;;;17.00;48.10;17.40;99241.00;;;;5349965;26;20299;-58
2024/04/12 11:35:15;;;;;;;1.30;1.20;;;17.00;48.20;17.40;99240.00;;;;5371338;26;20733;-58
2024/04/12 11:37:44;;;;;;;1.30;1.20;;;17.00;48.20;17.40;99228.00;;;;5381793;26;20288;-58
2024/04/12 11:40:16;;;;;;;1.20;1.10;;;17.00;48.20;17.40;99224.00;;;;5379768;26;20312;-58
2024/04/12 11:42:56;;;;;;;0.90;0.90;;;17.10;48.20;17.40;99224.00;;;;5382381;26;20376;-58
2024/04/12 11:45:25;;;;;;;0.90;0.90;;;17.00;48.20;17.40;99224.00;;;;5382549;26;20262;-58
2024/04/12 11:47:55;;;;;;;1.00;1.00;;;17.00;48.20;17.40;99223.00;;;;5381658;26;20232;-58
2024/04/12 11:50:22;;;;;;;1.00;1.00;;;17.10;48.20;17.40;99219.00;;;;5371983;26;20245;-58
2024/04/12 11:52:54;;;;;;;0.90;0.90;;;17.10;48.20;17.40;99224.00;;;;5347097;26;20233;-58
2024/04/12 11:55:21;;;;;;;1.00;1.00;;;17.10;48.20;17.40;99213.00;;;;5352740;26;20290;-67
2024/04/12 11:57:53;;;;;;;1.10;1.10;;;17.10;48.20;17.50;99203.00;;;;5381037;26;20266;-67
2024/04/12 12:05:37;;;;;;;1.40;1.00;;;17.10;48.30;17.50;99197.00;;;;5760068;21;20292;-56
2024/04/12 12:08:05;;;;;;;1.00;1.00;;;17.10;48.30;17.50;99199.00;;;;5380685;26;20228;-57
2024/04/12 12:10:36;;;;;;;1.23;1.17;;;17.10;48.20;17.50;99201.00;;;;5371902;26;20354;-57
2024/04/12 12:13:04;;;;;;;1.20;1.10;;;17.10;48.20;17.50;99193.00;;;;5346586;26;20261;-57
2024/04/12 12:15:33;;;;;;;1.30;1.20;;;17.10;48.20;17.50;99195.00;;;;5346577;26;20233;-57
2024/04/12 12:17:59;;;;;;;1.10;1.10;;;17.10;48.30;17.50;99198.00;;;;5345758;26;20279;-57
2024/04/12 12:20:30;;;;;;;0.83;0.83;;;17.10;48.30;17.50;99188.00;;;;5346605;26;20245;-57
2024/04/12 12:22:56;;;;;;;1.20;1.10;;;17.10;48.20;17.50;99188.00;;;;5346676;26;20233;-57
2024/04/12 12:25:26;;;;;;;1.10;1.00;;;17.10;48.30;17.50;99184.00;;;;5347112;26;20237;-57
2024/04/12 12:27:54;;;;;;;1.10;1.07;;;17.10;48.30;17.50;99181.00;;;;5345776;26;20300;-57
2024/04/12 12:30:26;;;;;;;1.30;1.17;;;17.10;48.30;17.50;99175.00;;;;5346142;26;20245;-57
2024/04/12 12:32:52;;;;;;;1.00;1.00;;;17.10;48.30;17.50;99166.00;;;;5347254;26;20284;-57
2024/04/12 12:35:22;;;;;;;1.77;1.10;;;17.10;48.30;17.50;99168.00;;;;5346585;26;20322;-57